Aviation Digital Data Service (ADDS)

Output produced by METARs form (1945 UTC 18 October 2018)
found at http://aviationweather.gov/metar/data/
 
ELLX 181920Z 05011KT 4000 BR NSC 13/10 Q1022 NOSIG
ELLX 181850Z 04012KT 5000 BR NSC 13/10 Q1022 NOSIG
TAF ELLX 181700Z 1818/1924 03012KT 5000 HZ BKN020 
     BECMG 1823/1901 04007KT 
     TEMPO 1902/1908 3000 BR BKN010 
     PROB40 
     TEMPO 1903/1908 1000 BKN002 
     BECMG 1911/1913 9999 SCT025